Time;durP1;ratioP1;P1;durP2;ratioP2;P2;SDS_P1;SDS_P2;PMS_P1;PMS_P2;Temp;Humidity;BMP_temperature;BMP_pressure;BME280_temperature;BME280_humidity;BME280_pressure;Samples;Min_cycle;Max_cycle;Signal;HPM_P1;HPM_P2
2021/05/22 00:00:22;;;;;;;;;;;14.70;99.90;;;;;;5054779;28;20007;-76
2021/05/22 00:02:47;;;;;;;;;;;14.80;99.90;;;;;;5056162;28;19927;-75
2021/05/22 00:05:13;;;;;;;;;;;14.70;99.90;;;;;;5056394;28;20258;-75
2021/05/22 00:07:39;;;;;;;;;;;14.70;99.90;;;;;;5055891;28;20347;-73
2021/05/22 00:10:09;;;;;;;;;;;14.70;99.90;;;;;;5056289;28;19950;-76
2021/05/22 00:12:35;;;;;;;;;;;14.70;99.90;;;;;;5054784;28;19959;-74
2021/05/22 00:15:01;;;;;;;;;;;14.70;99.90;;;;;;5056186;28;19909;-72
2021/05/22 00:17:27;;;;;;;;;;;14.70;99.90;;;;;;5055674;28;19958;-74
2021/05/22 00:19:53;;;;;;;;;;;14.70;99.90;;;;;;5055689;28;19908;-74
2021/05/22 00:22:19;;;;;;;;;;;14.80;99.90;;;;;;5055747;28;19908;-75
2021/05/22 00:24:44;;;;;;;;;;;14.70;99.90;;;;;;5054442;28;20363;-74
2021/05/22 00:27:10;;;;;;;;;;;14.70;99.90;;;;;;5055913;28;19927;-71
2021/05/22 00:29:36;;;;;;;;;;;14.60;99.90;;;;;;5055271;28;19921;-75
2021/05/22 00:32:02;;;;;;;;;;;14.60;99.90;;;;;;5055427;28;20377;-75
2021/05/22 00:34:27;;;;;;;;;;;14.50;99.90;;;;;;5054216;28;20278;-71
2021/05/22 00:36:53;;;;;;;;;;;14.50;99.90;;;;;;5055446;28;19905;-73
2021/05/22 00:39:18;;;;;;;;;;;14.60;99.90;;;;;;5055269;28;19908;-71
2021/05/22 00:41:44;;;;;;;;;;;14.60;99.90;;;;;;5055409;28;19905;-71
2021/05/22 00:44:10;;;;;;;;;;;14.50;99.90;;;;;;5055390;28;19911;-71
2021/05/22 00:46:36;;;;;;;;;;;14.50;99.90;;;;;;5055213;28;19987;-73
2021/05/22 00:49:01;;;;;;;;;;;14.50;99.90;;;;;;5055153;28;19905;-72
2021/05/22 00:51:27;;;;;;;;;;;14.60;99.90;;;;;;5055065;28;19976;-71
2021/05/22 00:53:53;;;;;;;;;;;14.50;99.90;;;;;;5054998;28;19913;-72
2021/05/22 00:56:18;;;;;;;;;;;14.40;99.90;;;;;;5053690;28;19909;-72
2021/05/22 00:58:44;;;;;;;;;;;14.50;99.90;;;;;;5053676;28;20350;-73
2021/05/22 01:01:10;;;;;;;;;;;14.50;99.90;;;;;;5055080;28;19911;-71
2021/05/22 01:03:40;;;;;;;;;;;14.40;99.90;;;;;;5054978;28;19905;-71
2021/05/22 01:06:12;;;;;;;;;;;14.40;99.90;;;;;;5055016;28;19999;-72
2021/05/22 01:08:38;;;;;;;;;;;14.40;99.90;;;;;;5054799;28;19911;-72
2021/05/22 01:11:11;;;;;;;;;;;14.50;99.90;;;;;;5055195;28;20274;-72
2021/05/22 01:13:38;;;;;;;;;;;14.50;99.90;;;;;;5054971;28;19920;-73
2021/05/22 01:16:04;;;;;;;;;;;14.50;99.90;;;;;;5070315;28;20301;-72
2021/05/22 01:18:31;;;;;;;;;;;14.50;99.90;;;;;;5053556;28;19999;-71
2021/05/22 01:21:02;;;;;;;;;;;14.50;99.90;;;;;;5054835;28;19904;-70
2021/05/22 01:23:31;;;;;;;;;;;14.40;99.90;;;;;;5054531;28;19911;-72
2021/05/22 01:25:57;;;;;;;;;;;14.30;99.90;;;;;;5054705;28;20355;-73
2021/05/22 01:28:23;;;;;;;;;;;14.30;99.90;;;;;;5053769;28;19951;-73
2021/05/22 01:30:50;;;;;;;;;;;14.30;99.90;;;;;;5054630;28;20400;-75
2021/05/22 01:33:17;;;;;;;;;;;14.30;99.90;;;;;;5054592;28;20351;-74
2021/05/22 01:35:43;;;;;;;;;;;14.30;99.90;;;;;;5054743;28;19991;-74
2021/05/22 01:38:09;;;;;;;;;;;14.30;99.90;;;;;;5053173;28;20337;-74
2021/05/22 01:40:35;;;;;;;;;;;14.20;99.90;;;;;;5054582;28;19963;-71
2021/05/22 01:43:01;;;;;;;;;;;14.20;99.90;;;;;;5054551;28;19950;-71
2021/05/22 01:45:32;;;;;;;;;;;14.20;99.90;;;;;;5054321;28;19904;-74
2021/05/22 01:47:59;;;;;;;;;;;14.30;99.90;;;;;;5054721;28;19905;-72
2021/05/22 01:50:26;;;;;;;;;;;14.30;99.90;;;;;;5054097;28;20381;-75
2021/05/22 01:52:56;;;;;;;;;;;14.30;99.90;;;;;;5054034;28;19912;-75
2021/05/22 01:55:22;;;;;;;;;;;14.20;99.90;;;;;;5054118;28;20325;-76
2021/05/22 01:57:48;;;;;;;;;;;14.20;99.90;;;;;;5054591;28;19947;-74
2021/05/22 02:00:15;;;;;;;;;;;14.20;99.90;;;;;;5054013;28;19932;-74
2021/05/22 02:02:45;;;;;;;;;;;14.20;99.90;;;;;;5054031;28;19911;-74
2021/05/22 02:05:11;;;;;;;;;;;14.10;99.90;;;;;;5053993;28;19999;-76
2021/05/22 02:07:37;;;;;;;;;;;14.10;99.90;;;;;;5052669;28;19955;-76
2021/05/22 02:10:06;;;;;;;;;;;14.10;99.90;;;;;;5053969;28;19905;-76
2021/05/22 02:12:33;;;;;;;;;;;14.00;99.90;;;;;;5052610;28;20355;-74
2021/05/22 02:15:01;;;;;;;;;;;14.00;99.90;;;;;;5054286;28;19908;-75
2021/05/22 02:17:27;;;;;;;;;;;14.10;99.90;;;;;;5053871;28;20366;-76
2021/05/22 02:19:53;;;;;;;;;;;14.10;99.90;;;;;;5053987;28;19904;-74
2021/05/22 02:22:21;;;;;;;;;;;14.10;99.90;;;;;;5054081;28;19908;-73
2021/05/22 02:24:50;;;;;;;;;;;14.00;99.90;;;;;;5053922;28;19912;-76
2021/05/22 02:27:16;;;;;;;;;;;13.90;99.90;;;;;;5053512;28;19905;-74
2021/05/22 02:29:44;;;;;;;;;;;13.90;99.90;;;;;;5053532;28;20016;-72
2021/05/22 02:32:10;;;;;;;;;;;13.90;99.90;;;;;;5053536;28;19944;-74
2021/05/22 02:34:38;;;;;;;;;;;13.90;99.90;;;;;;5053974;28;19988;-75
2021/05/22 02:37:04;;;;;;;;;;;14.00;99.90;;;;;;5053773;28;19904;-74
2021/05/22 02:39:30;;;;;;;;;;;14.10;99.90;;;;;;5053760;28;19935;-72
2021/05/22 02:41:58;;;;;;;;;;;14.10;99.90;;;;;;5057572;28;19996;-72
2021/05/22 02:44:25;;;;;;;;;;;14.00;99.90;;;;;;5057604;28;20266;-72
2021/05/22 02:46:53;;;;;;;;;;;13.90;99.90;;;;;;5057700;28;19905;-72
2021/05/22 02:49:25;;;;;;;;;;;13.90;99.90;;;;;;5057559;28;19905;-76
2021/05/22 02:51:51;;;;;;;;;;;13.90;99.90;;;;;;5057838;28;20346;-75
2021/05/22 02:54:19;;;;;;;;;;;13.90;99.90;;;;;;5057529;28;19921;-76
2021/05/22 02:56:44;;;;;;;;;;;13.90;99.90;;;;;;5057860;28;20362;-75
2021/05/22 02:59:10;;;;;;;;;;;13.90;99.90;;;;;;5057501;28;19952;-72
2021/05/22 03:01:36;;;;;;;;;;;13.80;99.90;;;;;;5057469;28;19904;-75
2021/05/22 03:04:03;;;;;;;;;;;13.90;99.90;;;;;;5057471;28;20530;-76
2021/05/22 03:06:28;;;;;;;;;;;13.80;99.90;;;;;;5056049;28;19904;-72
2021/05/22 03:08:54;;;;;;;;;;;13.80;99.90;;;;;;5057179;28;19911;-72
2021/05/22 03:11:22;;;;;;;;;;;13.80;99.90;;;;;;5057224;28;19995;-73
2021/05/22 03:13:48;;;;;;;;;;;13.80;99.90;;;;;;5057030;28;19912;-76
2021/05/22 03:16:14;;;;;;;;;;;13.80;99.90;;;;;;5055822;28;19912;-75
2021/05/22 03:18:40;;;;;;;;;;;13.80;99.90;;;;;;5057023;28;19909;-73
2021/05/22 03:21:07;;;;;;;;;;;13.90;99.90;;;;;;5057246;28;19911;-76
2021/05/22 03:23:32;;;;;;;;;;;13.90;99.90;;;;;;5055732;28;19911;-72
2021/05/22 03:25:58;;;;;;;;;;;13.90;99.90;;;;;;5056956;28;19905;-74
2021/05/22 03:28:24;;;;;;;;;;;14.00;99.90;;;;;;5056463;28;19955;-72
2021/05/22 03:30:50;;;;;;;;;;;14.00;99.90;;;;;;5056757;28;20362;-76
2021/05/22 03:33:16;;;;;;;;;;;14.00;99.90;;;;;;5057083;28;19913;-76
2021/05/22 03:35:42;;;;;;;;;;;14.10;99.90;;;;;;5056792;28;19911;-76
2021/05/22 03:38:08;;;;;;;;;;;14.00;99.90;;;;;;5056554;28;19987;-72
2021/05/22 03:40:33;;;;;;;;;;;14.00;99.90;;;;;;5056937;28;20313;-75
2021/05/22 03:42:59;;;;;;;;;;;13.90;99.90;;;;;;5056806;28;20000;-75
2021/05/22 03:45:25;;;;;;;;;;;14.00;99.90;;;;;;5056484;28;19904;-75
2021/05/22 03:47:51;;;;;;;;;;;14.00;99.90;;;;;;5056589;28;20416;-72
2021/05/22 03:50:17;;;;;;;;;;;13.90;99.90;;;;;;5056654;28;19912;-76
2021/05/22 03:52:43;;;;;;;;;;;14.00;99.90;;;;;;5055765;28;20316;-76
2021/05/22 03:55:09;;;;;;;;;;;13.90;99.90;;;;;;5056496;28;20391;-76
2021/05/22 03:57:35;;;;;;;;;;;14.00;99.90;;;;;;5056314;28;19926;-74
2021/05/22 04:00:01;;;;;;;;;;;14.00;99.90;;;;;;5056502;28;19987;-76
2021/05/22 04:02:27;;;;;;;;;;;14.10;99.90;;;;;;5056265;28;20397;-76
2021/05/22 04:04:53;;;;;;;;;;;14.20;99.90;;;;;;5056288;28;19905;-76
2021/05/22 04:07:19;;;;;;;;;;;14.20;99.90;;;;;;5056420;28;19909;-73
2021/05/22 04:09:45;;;;;;;;;;;14.20;99.90;;;;;;5054732;28;19954;-75
2021/05/22 04:12:11;;;;;;;;;;;14.30;99.90;;;;;;5054588;28;19995;-74
2021/05/22 04:14:36;;;;;;;;;;;14.30;99.90;;;;;;5056304;28;20286;-76
2021/05/22 04:17:02;;;;;;;;;;;14.40;99.90;;;;;;5056118;28;19905;-75
2021/05/22 04:19:28;;;;;;;;;;;14.40;99.90;;;;;;5071297;28;19904;-72
2021/05/22 04:21:53;;;;;;;;;;;14.40;99.90;;;;;;5055918;28;19905;-74
2021/05/22 04:24:19;;;;;;;;;;;14.40;99.90;;;;;;5055461;28;19909;-74
2021/05/22 04:26:45;;;;;;;;;;;14.50;99.90;;;;;;5055473;28;19904;-73
2021/05/22 04:29:11;;;;;;;;;;;14.60;99.90;;;;;;5054124;28;19967;-75
2021/05/22 04:31:37;;;;;;;;;;;14.50;99.90;;;;;;5054442;28;19912;-74
2021/05/22 04:34:03;;;;;;;;;;;14.50;99.90;;;;;;5055868;28;19912;-75
2021/05/22 04:36:29;;;;;;;;;;;14.60;99.90;;;;;;5055665;28;19909;-75
2021/05/22 04:38:54;;;;;;;;;;;14.70;99.90;;;;;;5055741;28;20005;-76
2021/05/22 04:41:20;;;;;;;;;;;14.70;99.90;;;;;;5055716;28;19981;-74
2021/05/22 04:43:46;;;;;;;;;;;14.80;99.90;;;;;;5055258;28;19943;-76
2021/05/22 04:46:12;;;;;;;;;;;14.80;99.90;;;;;;5055616;28;19905;-74
2021/05/22 04:48:37;;;;;;;;;;;14.90;99.90;;;;;;5055912;28;20373;-74
2021/05/22 04:51:03;;;;;;;;;;;14.90;99.90;;;;;;5056103;28;19938;-74
2021/05/22 04:53:29;;;;;;;;;;;15.00;99.90;;;;;;5055301;28;20017;-73
2021/05/22 04:55:55;;;;;;;;;;;15.00;99.90;;;;;;5054343;28;19943;-76
2021/05/22 04:58:21;;;;;;;;;;;15.00;99.90;;;;;;5054560;28;19904;-74
2021/05/22 05:00:46;;;;;;;;;;;15.10;99.90;;;;;;5055152;28;20000;-74
2021/05/22 05:03:12;;;;;;;;;;;15.30;99.90;;;;;;5053138;28;19905;-75
2021/05/22 05:05:38;;;;;;;;;;;15.40;99.90;;;;;;5055333;28;19999;-77
2021/05/22 05:08:04;;;;;;;;;;;15.50;99.90;;;;;;5070379;28;19911;-74
2021/05/22 05:10:29;;;;;;;;;;;15.60;99.90;;;;;;5054542;28;19908;-75
2021/05/22 05:12:55;;;;;;;;;;;15.70;99.90;;;;;;5055385;28;19952;-76
2021/05/22 05:15:21;;;;;;;;;;;15.80;99.90;;;;;;5054964;28;19912;-72
2021/05/22 05:17:47;;;;;;;;;;;15.90;99.90;;;;;;5055078;28;19912;-72
2021/05/22 05:20:13;;;;;;;;;;;16.00;99.90;;;;;;5055068;28;19936;-75
2021/05/22 05:22:38;;;;;;;;;;;16.10;99.90;;;;;;5055143;28;20262;-73
2021/05/22 05:25:05;;;;;;;;;;;16.10;99.90;;;;;;5054881;28;19905;-73
2021/05/22 05:27:31;;;;;;;;;;;16.20;99.90;;;;;;5054640;28;20339;-75
2021/05/22 05:29:56;;;;;;;;;;;16.30;99.60;;;;;;5054669;28;20367;-73
2021/05/22 05:32:22;;;;;;;;;;;16.40;97.70;;;;;;5054618;28;19905;-72
2021/05/22 05:34:48;;;;;;;;;;;16.40;97.80;;;;;;5055353;28;20033;-76
2021/05/22 05:37:14;;;;;;;;;;;16.50;97.60;;;;;;5054750;28;20248;-74
2021/05/22 05:39:40;;;;;;;;;;;16.60;96.70;;;;;;5054608;28;19908;-72
2021/05/22 05:42:06;;;;;;;;;;;16.70;96.70;;;;;;5054395;28;19974;-73
2021/05/22 05:44:32;;;;;;;;;;;16.70;96.70;;;;;;5054465;28;19911;-77
2021/05/22 05:46:58;;;;;;;;;;;16.70;96.50;;;;;;5054385;28;19905;-77
2021/05/22 05:49:28;;;;;;;;;;;16.80;96.10;;;;;;5054508;28;20012;-76
2021/05/22 05:51:55;;;;;;;;;;;16.80;96.50;;;;;;5054829;28;19911;-74
2021/05/22 05:54:21;;;;;;;;;;;17.00;97.00;;;;;;5054356;28;20358;-74
2021/05/22 05:56:46;;;;;;;;;;;17.10;95.70;;;;;;5053956;28;19909;-73
2021/05/22 05:59:12;;;;;;;;;;;17.10;95.20;;;;;;5069661;28;19904;-74
2021/05/22 06:01:38;;;;;;;;;;;17.10;95.10;;;;;;5054328;28;19912;-73
2021/05/22 06:04:05;;;;;;;;;;;17.20;95.50;;;;;;5054229;28;19905;-73
2021/05/22 06:06:31;;;;;;;;;;;17.30;94.90;;;;;;5054382;28;19909;-75
2021/05/22 06:08:57;;;;;;;;;;;17.40;95.50;;;;;;5054017;28;19905;-74
2021/05/22 06:11:24;;;;;;;;;;;17.60;94.10;;;;;;5054019;28;19904;-75
2021/05/22 06:13:50;;;;;;;;;;;17.80;93.90;;;;;;5053792;28;19920;-73
2021/05/22 06:16:23;;;;;;;;;;;18.00;92.20;;;;;;5054194;28;19905;-76
2021/05/22 06:18:49;;;;;;;;;;;18.20;93.00;;;;;;5054303;28;19908;-74
2021/05/22 06:21:15;;;;;;;;;;;18.30;91.80;;;;;;5054134;28;20004;-75
2021/05/22 06:23:41;;;;;;;;;;;18.50;91.80;;;;;;5053667;28;19905;-74
2021/05/22 06:26:07;;;;;;;;;;;18.70;91.60;;;;;;5054085;28;19911;-73
2021/05/22 06:28:33;;;;;;;;;;;18.80;92.90;;;;;;5053549;28;20382;-76
2021/05/22 06:31:00;;;;;;;;;;;18.90;91.50;;;;;;5054087;28;20274;-75
2021/05/22 06:33:27;;;;;;;;;;;18.90;91.90;;;;;;5054074;28;19967;-73
2021/05/22 06:35:52;;;;;;;;;;;19.10;91.50;;;;;;5053971;28;19940;-71
2021/05/22 06:38:18;;;;;;;;;;;19.10;90.90;;;;;;5053840;28;19905;-73
2021/05/22 06:40:45;;;;;;;;;;;19.10;91.40;;;;;;5053750;28;19905;-73
2021/05/22 06:43:11;;;;;;;;;;;19.20;90.60;;;;;;5069248;28;20270;-73
2021/05/22 06:45:40;;;;;;;;;;;19.30;91.10;;;;;;5053714;28;19905;-71
2021/05/22 06:48:06;;;;;;;;;;;19.30;90.50;;;;;;5053743;28;19905;-72
2021/05/22 06:50:32;;;;;;;;;;;19.40;90.20;;;;;;5054021;28;20355;-71
2021/05/22 06:52:58;;;;;;;;;;;19.50;91.00;;;;;;5052415;28;20377;-72
2021/05/22 06:55:24;;;;;;;;;;;19.50;92.00;;;;;;5053575;28;19905;-72
2021/05/22 06:57:50;;;;;;;;;;;19.60;90.60;;;;;;5053632;28;19905;-71
2021/05/22 07:00:16;;;;;;;;;;;19.60;90.20;;;;;;5053763;28;20366;-72
2021/05/22 07:02:42;;;;;;;;;;;;;;;;;;5053428;28;19904;-72
2021/05/22 07:05:08;;;;;;;;;;;19.70;86.80;;;;;;5053196;28;19907;-71
2021/05/22 07:07:35;;;;;;;;;;;19.80;86.80;;;;;;5053486;28;19911;-72
2021/05/22 07:10:01;;;;;;;;;;;19.90;85.80;;;;;;5053257;28;19951;-74
2021/05/22 07:12:26;;;;;;;;;;;19.90;85.20;;;;;;5053278;28;19904;-71
2021/05/22 07:14:52;;;;;;;;;;;20.00;84.60;;;;;;5053292;28;19905;-73
2021/05/22 07:17:18;;;;;;;;;;;20.10;85.60;;;;;;5052946;28;19905;-73
2021/05/22 07:19:43;;;;;;;;;;;20.20;86.80;;;;;;5052538;28;19950;-75
2021/05/22 07:22:11;;;;;;;;;;;20.10;86.00;;;;;;5052677;28;19959;-74
2021/05/22 07:24:36;;;;;;;;;;;20.20;86.60;;;;;;5053264;28;19911;-74
2021/05/22 07:27:02;;;;;;;;;;;20.30;90.00;;;;;;5055243;28;19905;-75
2021/05/22 07:29:30;;;;;;;;;;;20.50;87.00;;;;;;5056237;28;20026;-71
2021/05/22 07:31:56;;;;;;;;;;;20.90;83.10;;;;;;5056643;28;20054;-72
2021/05/22 07:34:21;;;;;;;;;;;21.30;83.60;;;;;;5055170;28;20047;-73
2021/05/22 07:36:47;;;;;;;;;;;21.50;81.70;;;;;;5056279;28;19912;-74
2021/05/22 07:39:14;;;;;;;;;;;21.80;82.80;;;;;;5056615;28;19992;-75
2021/05/22 07:41:40;;;;;;;;;;;22.20;79.50;;;;;;5056600;28;19916;-75
2021/05/22 07:44:06;;;;;;;;;;;22.30;79.00;;;;;;5056467;28;19904;-76
2021/05/22 07:46:32;;;;;;;;;;;22.30;65.30;;;;;;5056671;28;19950;-76
2021/05/22 07:48:57;;;;;;;;;;;22.40;70.90;;;;;;5056519;28;20343;-72
2021/05/22 07:51:23;;;;;;;;;;;22.50;66.00;;;;;;5056220;28;19911;-72
2021/05/22 07:53:49;;;;;;;;;;;22.70;65.10;;;;;;5056175;28;20370;-74
2021/05/22 07:56:15;;;;;;;;;;;22.80;65.90;;;;;;5071577;28;19908;-73
2021/05/22 07:58:40;;;;;;;;;;;22.90;67.30;;;;;;5056265;28;20011;-75
2021/05/22 08:01:06;;;;;;;;;;;23.20;64.30;;;;;;5054838;28;19911;-73
2021/05/22 08:03:32;;;;;;;;;;;23.40;64.50;;;;;;5056196;28;20354;-72
2021/05/22 08:05:57;;;;;;;;;;;23.50;60.00;;;;;;5055866;28;19905;-78
2021/05/22 08:08:23;;;;;;;;;;;23.40;57.80;;;;;;5055996;28;20274;-76
2021/05/22 08:10:49;;;;;;;;;;;23.50;59.30;;;;;;5055141;28;19915;-77
2021/05/22 08:13:14;;;;;;;;;;;23.70;60.80;;;;;;5056008;28;20003;-75
2021/05/22 08:15:43;;;;;;;;;;;23.60;55.70;;;;;;5055974;28;19905;-72
2021/05/22 08:18:09;;;;;;;;;;;23.20;57.30;;;;;;5055957;28;19911;-74
2021/05/22 08:20:34;;;;;;;;;;;23.40;56.00;;;;;;5055727;28;20429;-74
2021/05/22 08:23:00;;;;;;;;;;;23.70;56.50;;;;;;5055740;28;20351;-75
2021/05/22 08:25:26;;;;;;;;;;;23.90;56.90;;;;;;5054588;28;20248;-74
2021/05/22 08:27:53;;;;;;;;;;;24.20;60.80;;;;;;5055599;28;19927;-74
2021/05/22 08:30:19;;;;;;;;;;;24.50;57.10;;;;;;5055685;28;19923;-72
2021/05/22 08:32:45;;;;;;;;;;;24.80;55.00;;;;;;5055429;28;19939;-73
2021/05/22 08:35:11;;;;;;;;;;;24.70;53.20;;;;;;5055547;28;19909;-74
2021/05/22 08:37:37;;;;;;;;;;;24.80;52.70;;;;;;5054942;28;19912;-74
2021/05/22 08:40:03;;;;;;;;;;;24.90;53.10;;;;;;5053401;28;19905;-72
2021/05/22 08:42:29;;;;;;;;;;;25.20;54.80;;;;;;5054494;28;19909;-73
2021/05/22 08:45:06;;;;;;;;;;;25.30;54.10;;;;;;5054608;28;19908;-73
2021/05/22 08:47:32;;;;;;;;;;;25.50;55.60;;;;;;5054614;28;19912;-71
2021/05/22 08:49:58;;;;;;;;;;;25.60;54.30;;;;;;5054607;28;19905;-71
2021/05/22 08:52:23;;;;;;;;;;;25.70;57.30;;;;;;5054822;28;20346;-73
2021/05/22 08:54:49;;;;;;;;;;;25.80;57.20;;;;;;5070673;28;20359;-72
2021/05/22 08:57:16;;;;;;;;;;;25.70;56.80;;;;;;5055593;28;20320;-72
2021/05/22 08:59:44;;;;;;;;;;;25.60;56.20;;;;;;5055416;28;19908;-75
2021/05/22 09:02:11;;;;;;;;;;;25.40;56.10;;;;;;5055176;28;19909;-72
2021/05/22 09:04:56;;;;;;;;;;;25.40;53.90;;;;;;5055013;28;19913;-71
2021/05/22 09:07:22;;;;;;;;;;;25.70;54.80;;;;;;5055037;28;19905;-71
2021/05/22 09:09:48;;;;;;;;;;;25.50;51.40;;;;;;5055281;28;19959;-72
2021/05/22 09:12:18;;;;;;;;;;;25.50;53.00;;;;;;5054835;28;19948;-73
2021/05/22 09:14:48;;;;;;;;;;;25.20;52.30;;;;;;5059661;28;19955;-73
2021/05/22 09:17:15;;;;;;;;;;;25.40;53.30;;;;;;5059098;28;20359;-72
2021/05/22 09:19:41;;;;;;;;;;;25.60;54.20;;;;;;5065984;28;19911;-74
2021/05/22 09:22:18;;;;;;;;;;;25.60;53.70;;;;;;5074453;28;19908;-75
2021/05/22 09:25:00;;;;;;;;;;;25.50;54.50;;;;;;5074871;28;19908;-73
2021/05/22 09:27:33;;;;;;;;;;;25.50;56.20;;;;;;5071049;28;19908;-72
2021/05/22 09:30:07;;;;;;;;;;;25.50;51.20;;;;;;5062018;28;19916;-72
2021/05/22 09:32:33;;;;;;;;;;;25.20;53.00;;;;;;5070254;28;19909;-78
2021/05/22 09:35:00;;;;;;;;;;;25.10;49.80;;;;;;5072971;28;20025;-71
2021/05/22 09:37:25;;;;;;;;;;;25.40;51.10;;;;;;5074060;28;19923;-71
2021/05/22 09:39:53;;;;;;;;;;;25.50;51.20;;;;;;5061376;28;19908;-72
2021/05/22 09:42:25;;;;;;;;;;;25.60;54.50;;;;;;5065108;28;19916;-72
2021/05/22 09:44:51;;;;;;;;;;;25.90;51.80;;;;;;5071562;28;20274;-74
2021/05/22 09:47:17;;;;;;;;;;;26.00;51.70;;;;;;5072538;28;20421;-75
2021/05/22 09:49:42;;;;;;;;;;;26.00;51.40;;;;;;5066172;28;19937;-75
2021/05/22 09:52:10;;;;;;;;;;;26.10;49.90;;;;;;5067304;28;19947;-75
2021/05/22 09:54:39;;;;;;;;;;;26.20;51.20;;;;;;5061313;28;19919;-72
2021/05/22 09:57:04;;;;;;;;;;;26.00;49.30;;;;;;5064630;28;19904;-73
2021/05/22 09:59:30;;;;;;;;;;;26.00;48.30;;;;;;5063292;28;19904;-74
2021/05/22 10:01:58;;;;;;;;;;;26.10;46.70;;;;;;5057870;28;19951;-75
2021/05/22 10:04:24;;;;;;;;;;;26.10;45.60;;;;;;5054368;28;19911;-78
2021/05/22 10:06:49;;;;;;;;;;;26.30;49.80;;;;;;5053210;28;19908;-72
2021/05/22 10:09:16;;;;;;;;;;;26.30;46.80;;;;;;5052460;28;19904;-72
2021/05/22 10:12:01;;;;;;;;;;;26.70;54.90;;;;;;5052321;28;19978;-74
2021/05/22 10:14:29;;;;;;;;;;;26.70;48.30;;;;;;5068046;28;19919;-75
2021/05/22 10:16:55;;;;;;;;;;;26.40;51.30;;;;;;5051431;28;19970;-75
2021/05/22 10:19:21;;;;;;;;;;;26.40;50.90;;;;;;5051760;28;19908;-75
2021/05/22 10:21:47;;;;;;;;;;;26.30;51.00;;;;;;5053312;28;19911;-75
2021/05/22 10:24:13;;;;;;;;;;;26.50;50.20;;;;;;5052507;28;20014;-74
2021/05/22 10:26:40;;;;;;;;;;;26.70;52.40;;;;;;5054026;28;19911;-74
2021/05/22 10:29:06;;;;;;;;;;;26.80;48.20;;;;;;5053339;28;19942;-75
2021/05/22 10:31:41;;;;;;;;;;;27.10;50.90;;;;;;5052903;28;19908;-74
2021/05/22 10:34:11;;;;;;;;;;;27.00;48.60;;;;;;5053857;28;19956;-75
2021/05/22 10:36:42;;;;;;;;;;;27.20;50.30;;;;;;5053870;28;20282;-74
2021/05/22 10:39:28;;;;;;;;;;;27.30;48.10;;;;;;5069510;28;19912;-74
2021/05/22 10:41:54;;;;;;;;;;;27.80;52.40;;;;;;5054207;28;19944;-74
2021/05/22 10:44:34;;;;;;;;;;;28.00;50.40;;;;;;5052135;28;20433;-75
2021/05/22 10:47:02;;;;;;;;;;;27.80;47.60;;;;;;5053526;28;20381;-75
2021/05/22 10:49:46;;;;;;;;;;;28.10;52.30;;;;;;5053778;28;19935;-74
2021/05/22 10:52:16;;;;;;;;;;;28.40;51.20;;;;;;5053729;28;19912;-72
2021/05/22 10:55:01;;;;;;;;;;;27.70;47.80;;;;;;5053560;28;19913;-72
2021/05/22 10:57:28;;;;;;;;;;;27.10;48.00;;;;;;5053507;28;19944;-75
2021/05/22 11:00:12;;;;;;;;;;;27.60;48.10;;;;;;5053566;28;20240;-74
2021/05/22 11:02:39;;;;;;;;;;;27.60;46.50;;;;;;5057404;28;19905;-75
2021/05/22 11:05:28;;;;;;;;;;;28.10;47.70;;;;;;5056389;28;20297;-76
2021/05/22 11:08:03;;;;;;;;;;;27.90;49.90;;;;;;5054339;28;19927;-76
2021/05/22 11:10:39;;;;;;;;;;;27.70;49.80;;;;;;5057595;28;19959;-75
2021/05/22 11:13:06;;;;;;;;;;;27.30;51.00;;;;;;5057703;28;19916;-74
2021/05/22 11:15:45;;;;;;;;;;;26.80;49.40;;;;;;5057552;28;19909;-74
2021/05/22 11:18:12;;;;;;;;;;;26.70;53.70;;;;;;5057455;28;19927;-74
2021/05/22 11:20:39;;;;;;;;;;;26.50;56.90;;;;;;5057256;28;20354;-74
2021/05/22 11:23:06;;;;;;;;;;;26.50;54.30;;;;;;5057487;28;19904;-74
2021/05/22 11:25:58;;;;;;;;;;;26.60;55.30;;;;;;5057229;28;19904;-73
2021/05/22 11:28:23;;;;;;;;;;;26.40;52.90;;;;;;5055692;28;19909;-75
2021/05/22 11:30:51;;;;;;;;;;;26.10;51.90;;;;;;5057477;28;19915;-74
2021/05/22 11:33:22;;;;;;;;;;;26.10;51.50;;;;;;5055679;28;20312;-75
2021/05/22 11:35:50;;;;;;;;;;;26.10;50.00;;;;;;5056920;28;19948;-74
2021/05/22 11:38:19;;;;;;;;;;;26.10;52.20;;;;;;5056877;28;19905;-74
2021/05/22 11:40:49;;;;;;;;;;;26.40;54.20;;;;;;5057088;28;19911;-73
2021/05/22 11:43:15;;;;;;;;;;;26.50;55.70;;;;;;5056980;28;19911;-72
2021/05/22 11:45:40;;;;;;;;;;;27.10;62.00;;;;;;5056668;28;19909;-72
2021/05/22 11:48:21;;;;;;;;;;;27.50;50.00;;;;;;5061812;28;19958;-76
2021/05/22 11:50:47;;;;;;;;;;;27.60;52.50;;;;;;5056895;28;20355;-74
2021/05/22 11:53:13;;;;;;;;;;;27.20;49.30;;;;;;5055105;28;19942;-75
2021/05/22 11:55:39;;;;;;;;;;;26.90;47.70;;;;;;5056555;28;20046;-76
2021/05/22 11:58:06;;;;;;;;;;;27.00;51.90;;;;;;5055631;28;19991;-77
2021/05/22 12:00:31;;;;;;;;;;;27.10;50.90;;;;;;5058977;28;19970;-76
2021/05/22 12:02:57;;;;;;;;;;;27.00;51.50;;;;;;5058811;28;19987;-75
2021/05/22 12:05:23;;;;;;;;;;;27.50;52.40;;;;;;5056069;28;19911;-74
2021/05/22 12:07:54;;;;;;;;;;;27.80;48.10;;;;;;5056248;28;19908;-75
2021/05/22 12:10:27;;;;;;;;;;;28.10;51.30;;;;;;5056387;28;19904;-71
2021/05/22 12:12:59;;;;;;;;;;;28.00;47.60;;;;;;5055391;28;19956;-76
2021/05/22 12:15:26;;;;;;;;;;;28.00;47.20;;;;;;5056073;28;19912;-73
2021/05/22 12:17:53;;;;;;;;;;;28.00;49.70;;;;;;5056483;28;20269;-72
2021/05/22 12:20:20;;;;;;;;;;;28.20;51.60;;;;;;5056089;28;20358;-71
2021/05/22 12:22:46;;;;;;;;;;;28.50;49.60;;;;;;5056247;28;19904;-74
2021/05/22 12:25:12;;;;;;;;;;;28.10;48.80;;;;;;5055778;28;19912;-71
2021/05/22 12:27:38;;;;;;;;;;;27.80;48.20;;;;;;5055553;28;19905;-73
2021/05/22 12:30:05;;;;;;;;;;;27.90;51.40;;;;;;5055452;28;19970;-73
2021/05/22 12:32:31;;;;;;;;;;;28.40;50.10;;;;;;5055678;28;19904;-73
2021/05/22 12:34:57;;;;;;;;;;;28.10;48.10;;;;;;5055790;28;19932;-72
2021/05/22 12:37:23;;;;;;;;;;;28.60;50.70;;;;;;5056031;28;19927;-71
2021/05/22 12:39:50;;;;;;;;;;;28.60;51.10;;;;;;5060695;28;20015;-73
2021/05/22 12:42:18;;;;;;;;;;;28.60;50.80;;;;;;5074819;28;19912;-70
2021/05/22 12:44:44;;;;;;;;;;;28.60;48.80;;;;;;5075581;28;20049;-72
2021/05/22 12:47:11;;;;;;;;;;;28.50;48.20;;;;;;5075469;28;19905;-71
2021/05/22 12:49:37;;;;;;;;;;;28.00;48.20;;;;;;5073809;28;19904;-73
2021/05/22 12:52:12;;;;;;;;;;;27.80;46.50;;;;;;5064741;28;19912;-73
2021/05/22 12:54:38;;;;;;;;;;;27.90;49.00;;;;;;5065326;28;19919;-72
2021/05/22 12:57:10;;;;;;;;;;;27.80;47.00;;;;;;5064098;28;19905;-71
2021/05/22 12:59:37;;;;;;;;;;;27.80;52.00;;;;;;5054606;28;19908;-73
2021/05/22 13:02:11;;;;;;;;;;;27.50;51.20;;;;;;5062632;28;20281;-74
2021/05/22 13:04:37;;;;;;;;;;;26.90;48.30;;;;;;5063670;28;19904;-71
2021/05/22 13:07:03;;;;;;;;;;;26.80;48.80;;;;;;5060042;28;20325;-73
2021/05/22 13:09:28;;;;;;;;;;;26.70;51.00;;;;;;5071041;28;19950;-71
2021/05/22 13:11:58;;;;;;;;;;;26.60;50.60;;;;;;5074794;28;19908;-73
2021/05/22 13:14:24;;;;;;;;;;;26.50;49.10;;;;;;5074958;28;19922;-71
2021/05/22 13:16:57;;;;;;;;;;;26.60;50.70;;;;;;5075123;28;20384;-71
2021/05/22 13:19:41;;;;;;;;;;;26.70;48.70;;;;;;5075136;28;19905;-71
2021/05/22 13:22:19;;;;;;;;;;;26.70;47.60;;;;;;5074800;28;19904;-71
2021/05/22 13:25:04;;;;;;;;;;;26.70;50.60;;;;;;5074424;28;20343;-70
2021/05/22 13:27:31;;;;;;;;;;;26.60;49.70;;;;;;5074771;28;20289;-72
2021/05/22 13:29:58;;;;;;;;;;;26.60;49.80;;;;;;5074241;28;19917;-71
2021/05/22 13:32:24;;;;;;;;;;;26.50;50.40;;;;;;5074693;28;19905;-71
2021/05/22 13:34:50;;;;;;;;;;;26.40;47.90;;;;;;5072764;28;19923;-71
2021/05/22 13:37:17;;;;;;;;;;;26.30;55.60;;;;;;5074324;28;19999;-72
2021/05/22 13:39:43;;;;;;;;;;;26.30;49.50;;;;;;5074484;28;19911;-71
2021/05/22 13:42:09;;;;;;;;;;;26.40;55.70;;;;;;5073099;28;20006;-71
2021/05/22 13:44:34;;;;;;;;;;;26.50;54.50;;;;;;5074517;28;19987;-72
2021/05/22 13:47:00;;;;;;;;;;;26.70;57.30;;;;;;5074465;28;19939;-71
2021/05/22 13:49:27;;;;;;;;;;;26.80;54.60;;;;;;5074318;28;19911;-71
2021/05/22 13:51:53;;;;;;;;;;;26.80;54.40;;;;;;5074418;28;19904;-72
2021/05/22 13:54:19;;;;;;;;;;;26.80;54.20;;;;;;5074136;28;19912;-71
2021/05/22 13:56:45;;;;;;;;;;;26.80;54.30;;;;;;5074273;28;19991;-72
2021/05/22 13:59:10;;;;;;;;;;;26.80;54.40;;;;;;5073067;28;19911;-71
2021/05/22 14:01:36;;;;;;;;;;;26.70;54.70;;;;;;5074020;28;20342;-72
2021/05/22 14:04:02;;;;;;;;;;;26.60;53.20;;;;;;5074212;28;19910;-71
2021/05/22 14:06:28;;;;;;;;;;;26.50;54.80;;;;;;5074052;28;19911;-71
2021/05/22 14:08:54;;;;;;;;;;;26.40;53.50;;;;;;5074483;28;20365;-70
2021/05/22 14:11:20;;;;;;;;;;;26.20;52.50;;;;;;5074194;28;20404;-70
2021/05/22 14:13:46;;;;;;;;;;;26.20;54.80;;;;;;5073707;28;19912;-71
2021/05/22 14:16:12;;;;;;;;;;;26.10;58.80;;;;;;5072599;28;20429;-71
2021/05/22 14:18:38;;;;;;;;;;;26.10;56.30;;;;;;5074167;28;19905;-71